Pagrindinis puslapis
METAR-TAF:

METAR-TAF

Oro uostai :

Florianopolis, Santa Katarina, Brazilija

platuma: 27-40S, ilguma: 048-33W, Aukštis: 5 m

Dabartinis oras

Ataskaita buvo paskelbta 13 minutes, ne 13:00 UTC
Vėjas 7 kt iš Šiaurės/Šiaurės Vakarų
Temperatūra 18°C
Drėgmė 94%
Slėgis 1025 hPa
Matomumas: 5000 m
rūkana,

METAR: SBFL 241300Z 34007KT 5000 BR NSC 18/17 Q1025

Laikas: 10:13 (13:13 UTC)

Prognozė

Ataskaita buvo paskelbta 4 valandos ir 13 minutes, ne 09:00 UTC
Prognozė galioja nuo 24 metu 12 UTC su 25 metu 12 UTC
Vėjas 3 kt iš Šiaurės
Matomumas: 0500 m
ne aukštis 200 ft
rūkas
Tapsmas
nuo 24 metu 12 UTC su 24 metu 14 UTC
Vėjas 9 kt iš Šiaurės
Matomumas 10 km arba daugiau
nėra debesų žemiau 1500 m ir nėra kamuolinių lietaus debesų
Tikimybė 30%
nuo 25 metu 06 UTC su 25 metu 11 UTC
Vėjas 2 kt iš Šiaurės/Šiaurės Vakarų
Matomumas: 0800 m
ne aukštis 200 ft
rūkas

TAF: SBFL 240900Z 2412/2512 36003KT 0500 FG VV002 TX21/2417Z TN15/2508Z BECMG 2412/2414 36009KT CAVOK PROB30 2506/2511 33002KT 0800 FG VV002 RMK PFO

Orai ataskaitas ir orų prognozės (METAR, TAF).

turimą stotys yra geltonos ir raudonos taškus žemėlapyje.

Perkelti pele per norėdami pamatyti stoties vardą.

Tada spustelėkite, norėdami matyti oro stebėjimo ir prognozės.

Norėdami pakeisti žemėlapį: spustelėkite ant žalios mygtukų su juodo kryžiaus žemyn,; žalią mygtuką su brūkšneliu, jei norite nutolinti; arba žalių rodyklių gretimoms žemėlapius.


METAR-TAF: